Time;durP1;ratioP1;P1;durP2;ratioP2;P2;SDS_P1;SDS_P2;PMS_P1;PMS_P2;Temp;Humidity;BMP_temperature;BMP_pressure;BME280_temperature;BME280_humidity;BME280_pressure;Samples;Min_cycle;Max_cycle;Signal;HPM_P1;HPM_P2
2022/11/15 00:01:17;;;;;;;1.57;1.10;;;10.80;98.20;;;;;;5001476;28;20502;-77
2022/11/15 00:03:44;;;;;;;1.60;1.20;;;10.90;98.20;;;;;;5034976;28;20571;-77
2022/11/15 00:06:11;;;;;;;1.53;1.10;;;10.90;98.20;;;;;;5015176;28;20514;-78
2022/11/15 00:08:38;;;;;;;1.57;1.00;;;11.00;98.20;;;;;;5025118;28;20453;-77
2022/11/15 00:11:05;;;;;;;1.60;1.10;;;11.10;98.20;;;;;;5006432;28;20466;-76
2022/11/15 00:13:34;;;;;;;1.60;1.20;;;11.10;98.20;;;;;;5027235;28;20465;-78
2022/11/15 00:16:02;;;;;;;1.60;1.10;;;11.10;98.20;;;;;;4998429;28;20461;-76
2022/11/15 00:18:29;;;;;;;1.60;1.10;;;11.20;98.20;;;;;;5033075;28;20571;-78
2022/11/15 00:20:56;;;;;;;1.53;1.10;;;11.30;98.20;;;;;;5014363;28;20995;-77
2022/11/15 00:23:23;;;;;;;1.53;1.10;;;11.30;98.20;;;;;;5032061;28;20460;-77
2022/11/15 00:25:57;;;;;;;1.60;1.10;;;11.40;98.20;;;;;;5014580;28;20475;-79
2022/11/15 00:28:23;;;;;;;1.60;1.10;;;11.40;98.20;;;;;;5035038;28;20480;-76
2022/11/15 00:30:52;;;;;;;1.60;1.03;;;11.40;98.20;;;;;;4998911;28;21139;-78
2022/11/15 00:33:19;;;;;;;1.57;1.00;;;11.40;98.20;;;;;;5030857;28;20507;-79
2022/11/15 00:35:45;;;;;;;1.57;1.10;;;11.40;98.20;;;;;;5005900;28;20461;-77
2022/11/15 00:38:12;;;;;;;1.60;1.10;;;11.50;98.20;;;;;;5009735;28;20472;-77
2022/11/15 00:40:39;;;;;;;1.60;1.10;;;11.50;98.20;;;;;;5020000;28;20470;-79
2022/11/15 00:43:06;;;;;;;1.60;1.10;;;11.50;98.20;;;;;;5014364;28;20571;-78
2022/11/15 00:45:32;;;;;;;1.57;1.10;;;11.50;98.20;;;;;;5017927;28;20484;-76
2022/11/15 00:48:01;;;;;;;3.80;3.50;;;11.50;98.20;;;;;;5023755;28;20479;-76
2022/11/15 00:50:27;;;;;;;1.57;1.10;;;11.60;98.20;;;;;;5017855;28;20532;-76
2022/11/15 00:52:54;;;;;;;1.50;1.00;;;11.60;98.20;;;;;;5021386;28;20491;-78
2022/11/15 00:55:22;;;;;;;1.53;1.10;;;11.60;98.20;;;;;;5006349;28;20476;-76
2022/11/15 00:57:49;;;;;;;1.57;1.10;;;11.60;98.20;;;;;;5024011;28;20479;-78
2022/11/15 01:00:16;;;;;;;1.60;1.10;;;11.70;98.20;;;;;;5002881;28;20453;-77
2022/11/15 01:02:43;;;;;;;1.57;1.00;;;11.70;98.20;;;;;;5019068;28;20491;-77
2022/11/15 01:05:11;;;;;;;1.60;1.10;;;11.80;98.20;;;;;;5015427;28;20579;-77
2022/11/15 01:07:38;;;;;;;1.60;1.10;;;11.80;98.20;;;;;;5022317;28;20494;-77
2022/11/15 01:10:05;;;;;;;1.60;1.10;;;11.80;98.20;;;;;;5000076;28;20557;-78
2022/11/15 01:12:32;;;;;;;4.63;2.87;;;11.80;98.20;;;;;;5017725;28;20653;-77
2022/11/15 01:14:59;;;;;;;1.57;1.10;;;11.90;98.20;;;;;;5002750;28;20484;-78
2022/11/15 01:17:26;;;;;;;1.70;1.43;;;11.90;98.20;;;;;;5014542;28;20490;-77
2022/11/15 01:19:52;;;;;;;1.60;1.20;;;12.00;98.20;;;;;;5014008;28;20469;-76
2022/11/15 01:22:21;;;;;;;1.53;1.10;;;12.00;98.20;;;;;;5009137;28;20482;-76
2022/11/15 01:24:48;;;;;;;1.60;1.10;;;12.00;98.20;;;;;;5012788;28;20534;-76
2022/11/15 01:27:14;;;;;;;1.60;1.10;;;12.00;98.20;;;;;;5011389;28;21011;-76
2022/11/15 01:29:41;;;;;;;1.60;1.10;;;12.10;98.20;;;;;;5001877;28;20969;-77
2022/11/15 01:32:08;;;;;;;1.53;1.00;;;12.10;98.20;;;;;;5002097;28;20487;-76
2022/11/15 01:34:35;;;;;;;1.57;1.00;;;12.10;98.20;;;;;;5015987;28;20479;-77
2022/11/15 01:37:03;;;;;;;1.60;1.10;;;12.10;98.20;;;;;;5010860;28;21082;-77
2022/11/15 01:39:31;;;;;;;1.60;1.10;;;12.20;98.20;;;;;;5013175;28;20611;-76
2022/11/15 01:41:58;;;;;;;1.60;1.20;;;12.20;98.20;;;;;;5008689;28;20487;-76
2022/11/15 01:44:43;;;;;;;1.57;1.03;;;12.20;98.20;;;;;;5017732;28;21128;-76
2022/11/15 01:47:14;;;;;;;1.60;1.10;;;12.20;98.20;;;;;;5011448;28;20849;-76
2022/11/15 01:49:48;;;;;;;1.60;1.20;;;12.30;98.20;;;;;;5015072;28;20544;-76
2022/11/15 01:52:18;;;;;;;1.50;1.00;;;12.30;98.20;;;;;;5011886;28;20562;-76
2022/11/15 01:54:48;;;;;;;1.60;1.07;;;12.30;98.20;;;;;;5000434;28;20493;-76
2022/11/15 01:57:15;;;;;;;1.60;1.10;;;12.40;98.20;;;;;;5004148;28;20483;-76
2022/11/15 01:59:45;;;;;;;1.60;1.30;;;12.40;98.20;;;;;;5010524;28;20492;-76
2022/11/15 02:02:13;;;;;;;1.60;1.00;;;12.50;98.20;;;;;;5014089;28;20578;-76
2022/11/15 02:04:42;;;;;;;1.57;1.00;;;12.50;98.20;;;;;;5020386;28;20488;-75
2022/11/15 02:07:12;;;;;;;1.53;1.00;;;12.50;98.20;;;;;;5017728;28;20479;-76
2022/11/15 02:09:40;;;;;;;1.60;1.10;;;12.50;98.20;;;;;;5003506;28;20548;-76
2022/11/15 02:12:12;;;;;;;1.57;1.00;;;12.50;98.20;;;;;;5007890;28;20483;-76
2022/11/15 02:14:41;;;;;;;1.53;1.10;;;12.50;98.20;;;;;;5022023;28;20479;-75
2022/11/15 02:17:21;;;;;;;1.57;1.03;;;12.60;98.20;;;;;;5017145;28;20483;-76
2022/11/15 02:20:13;;;;;;;1.60;1.10;;;12.60;98.20;;;;;;5020641;28;20498;-76
2022/11/15 02:22:52;;;;;;;1.60;1.00;;;12.60;98.20;;;;;;5021305;28;20575;-76
2022/11/15 02:25:39;;;;;;;1.60;1.00;;;12.60;98.20;;;;;;5013323;28;20486;-75
2022/11/15 02:28:45;;;;;;;1.50;1.00;;;12.60;98.20;;;;;;5018948;28;20519;-76
2022/11/15 02:31:17;;;;;;;1.60;1.10;;;12.60;98.20;;;;;;5003803;28;21092;-76
2022/11/15 02:33:54;;;;;;;1.60;1.10;;;12.60;98.20;;;;;;5021872;28;20665;-75
2022/11/15 02:36:33;;;;;;;1.60;1.17;;;12.70;98.20;;;;;;5008893;28;20502;-76
2022/11/15 02:39:06;;;;;;;2.20;2.00;;;12.70;98.20;;;;;;5022775;28;20516;-76
2022/11/15 02:41:40;;;;;;;1.50;1.00;;;12.70;98.20;;;;;;5010782;28;20486;-76
2022/11/15 02:44:11;;;;;;;1.60;1.00;;;12.70;98.20;;;;;;5020137;28;20490;-76
2022/11/15 02:49:32;;;;;;;1.57;1.10;;;12.80;98.20;;;;;;5011844;28;20455;-75
2022/11/15 02:51:58;;;;;;;1.60;1.10;;;12.80;98.20;;;;;;5013632;28;21036;-76
2022/11/15 02:54:29;;;;;;;1.53;1.00;;;12.80;98.20;;;;;;5020229;28;20895;-76
2022/11/15 02:57:00;;;;;;;1.50;1.00;;;12.80;98.20;;;;;;5007570;28;21146;-76
2022/11/15 02:59:56;;;;;;;1.57;1.00;;;12.80;98.20;;;;;;5015170;28;20508;-76
2022/11/15 03:02:43;;;;;;;1.50;1.00;;;12.70;98.20;;;;;;5009859;28;20493;-76
2022/11/15 03:05:21;;;;;;;1.60;1.20;;;12.80;98.20;;;;;;5014703;28;20487;-75
2022/11/15 03:07:54;;;;;;;1.53;1.00;;;12.80;98.20;;;;;;5016347;28;20872;-76
2022/11/15 03:10:27;;;;;;;1.70;1.40;;;12.80;98.20;;;;;;4995395;28;20464;-75
2022/11/15 03:12:58;;;;;;;1.60;1.30;;;12.80;98.20;;;;;;5010767;28;20545;-76
2022/11/15 03:15:29;;;;;;;1.57;1.00;;;12.80;98.20;;;;;;5005499;28;20482;-76
2022/11/15 03:18:01;;;;;;;1.57;1.00;;;12.80;98.20;;;;;;5016272;28;20493;-76
2022/11/15 03:20:30;;;;;;;1.57;1.07;;;12.80;98.20;;;;;;5013160;28;20468;-76
2022/11/15 03:23:01;;;;;;;1.50;0.90;;;12.80;98.20;;;;;;5025971;23;20495;-80
2022/11/15 03:25:30;;;;;;;1.53;1.10;;;12.80;98.20;;;;;;5018630;28;20464;-79
2022/11/15 03:27:59;;;;;;;1.60;1.10;;;12.80;98.20;;;;;;5012929;28;20506;-78
2022/11/15 03:30:27;;;;;;;1.60;1.10;;;12.80;98.20;;;;;;5017236;28;20456;-80
2022/11/15 03:32:58;;;;;;;2.00;1.40;;;12.70;98.20;;;;;;5005314;28;20829;-79
2022/11/15 03:35:28;;;;;;;3.43;3.13;;;12.80;98.20;;;;;;5016089;28;20471;-80
2022/11/15 03:38:01;;;;;;;1.53;1.00;;;12.80;98.20;;;;;;5020059;28;20487;-79
2022/11/15 03:40:39;;;;;;;1.50;1.00;;;12.80;98.20;;;;;;5016342;28;20448;-78
2022/11/15 03:43:11;;;;;;;1.53;1.00;;;12.80;98.20;;;;;;5005156;28;20547;-79
2022/11/15 03:45:44;;;;;;;1.80;1.53;;;12.80;98.20;;;;;;4999771;28;20484;-78
2022/11/15 03:48:17;;;;;;;1.50;1.00;;;12.80;98.20;;;;;;5019760;28;20514;-78
2022/11/15 03:50:44;;;;;;;1.57;1.10;;;12.80;98.20;;;;;;5019646;28;20476;-77
2022/11/15 03:53:13;;;;;;;1.60;1.00;;;12.80;98.20;;;;;;5003107;28;20488;-78
2022/11/15 03:55:40;;;;;;;1.57;1.00;;;12.70;98.20;;;;;;4997519;28;20465;-78
2022/11/15 03:58:07;;;;;;;1.60;1.10;;;12.70;98.20;;;;;;5010584;28;20492;-80
2022/11/15 04:00:34;;;;;;;1.60;1.10;;;12.70;98.20;;;;;;5016893;28;20460;-79
2022/11/15 04:03:01;;;;;;;1.60;1.10;;;12.70;98.20;;;;;;5003546;28;20496;-78
2022/11/15 04:05:29;;;;;;;1.60;1.10;;;12.80;98.20;;;;;;4998637;28;20461;-79
2022/11/15 04:07:56;;;;;;;1.60;1.00;;;12.80;98.20;;;;;;5019233;28;20485;-79
2022/11/15 04:10:23;;;;;;;1.60;1.00;;;12.80;98.20;;;;;;5018638;28;20456;-79
2022/11/15 04:12:50;;;;;;;1.53;1.00;;;12.90;98.20;;;;;;5006510;28;20495;-79
2022/11/15 04:15:18;;;;;;;1.53;1.10;;;12.90;98.20;;;;;;4995336;28;20512;-79
2022/11/15 04:17:47;;;;;;;1.53;1.00;;;12.90;98.20;;;;;;5002773;28;20492;-80
2022/11/15 04:25:51;;;;;;;1.60;1.10;;;12.90;98.20;;;;;;5011019;28;20476;-82
2022/11/15 04:28:18;;;;;;;1.87;1.63;;;12.90;98.20;;;;;;5017302;28;20850;-79
2022/11/15 04:30:45;;;;;;;1.60;1.10;;;12.90;98.20;;;;;;5023320;28;20456;-79
2022/11/15 04:33:12;;;;;;;1.60;1.00;;;12.80;98.20;;;;;;4994531;28;20478;-82
2022/11/15 04:35:39;;;;;;;3.70;2.50;;;12.80;98.20;;;;;;5024480;28;20459;-81
2022/11/15 04:38:09;;;;;;;1.70;1.30;;;12.70;98.20;;;;;;5016683;28;20480;-80
2022/11/15 04:40:37;;;;;;;1.53;1.00;;;12.70;98.20;;;;;;5023200;28;20534;-81
2022/11/15 04:43:05;;;;;;;1.57;1.00;;;12.70;98.20;;;;;;5028763;28;20490;-83
2022/11/15 04:45:32;;;;;;;1.60;1.10;;;12.60;98.20;;;;;;5023339;28;20456;-83
2022/11/15 04:47:59;;;;;;;1.60;1.00;;;12.60;98.20;;;;;;5007031;28;20511;-82
2022/11/15 04:50:26;;;;;;;1.57;1.00;;;12.60;98.20;;;;;;5022776;28;20874;-83
2022/11/15 04:52:54;;;;;;;2.30;2.10;;;12.60;98.20;;;;;;5009001;28;20488;-82
2022/11/15 04:55:22;;;;;;;1.60;1.10;;;12.60;98.20;;;;;;5002718;28;20471;-80
2022/11/15 04:57:58;;;;;;;1.57;1.03;;;12.60;98.20;;;;;;5016200;28;20487;-79
2022/11/15 05:00:25;;;;;;;1.50;1.00;;;12.60;98.20;;;;;;5016419;28;20480;-81
2022/11/15 05:05:37;;;;;;;1.80;1.50;;;12.70;98.20;;;;;;5002475;28;20455;-81
2022/11/15 05:08:04;;;;;;;1.53;1.00;;;12.70;98.20;;;;;;5014221;28;20472;-80
2022/11/15 05:10:32;;;;;;;1.57;1.10;;;12.70;98.20;;;;;;5020937;28;20502;-79
2022/11/15 05:12:59;;;;;;;1.87;1.67;;;12.70;98.20;;;;;;5015092;28;20505;-77
2022/11/15 05:15:26;;;;;;;1.60;1.20;;;12.70;98.20;;;;;;5013378;28;20980;-77
2022/11/15 05:17:58;;;;;;;1.53;1.10;;;12.70;98.20;;;;;;5005384;28;20476;-76
2022/11/15 05:20:25;;;;;;;1.53;1.00;;;12.70;98.20;;;;;;4993812;28;20489;-78
2022/11/15 05:22:53;;;;;;;1.53;0.97;;;12.70;98.20;;;;;;5002897;28;20490;-77
2022/11/15 05:25:20;;;;;;;1.57;1.10;;;12.70;98.20;;;;;;5012202;28;20980;-77
2022/11/15 05:27:48;;;;;;;1.57;1.10;;;12.70;98.20;;;;;;5007561;28;20594;-77
2022/11/15 05:30:16;;;;;;;1.53;1.00;;;12.80;98.20;;;;;;4995852;28;21156;-77
2022/11/15 05:32:43;;;;;;;1.60;1.00;;;12.80;98.20;;;;;;4987810;28;20491;-78
2022/11/15 05:35:14;;;;;;;1.53;1.00;;;12.80;98.20;;;;;;4990422;28;20958;-76
2022/11/15 05:37:41;;;;;;;1.50;1.00;;;12.80;98.20;;;;;;5006862;28;20479;-78
2022/11/15 05:40:09;;;;;;;1.50;1.00;;;12.80;98.20;;;;;;5012022;28;20888;-77
2022/11/15 05:42:36;;;;;;;1.60;1.10;;;12.90;98.20;;;;;;5008089;28;20598;-77
2022/11/15 05:45:08;;;;;;;1.53;1.00;;;12.90;98.20;;;;;;5012330;28;20499;-76
2022/11/15 05:47:39;;;;;;;1.57;1.00;;;12.90;98.20;;;;;;4983969;28;20485;-77
2022/11/15 05:50:07;;;;;;;1.53;1.10;;;12.90;98.20;;;;;;4990457;28;20453;-76
2022/11/15 05:52:37;;;;;;;1.53;1.00;;;13.00;98.20;;;;;;4991685;28;20492;-78
2022/11/15 05:55:08;;;;;;;1.53;1.00;;;13.00;98.20;;;;;;5009810;28;20463;-77
2022/11/15 05:57:35;;;;;;;1.53;1.00;;;13.00;98.20;;;;;;4984791;28;20480;-76
2022/11/15 06:00:05;;;;;;;1.57;1.00;;;13.00;98.20;;;;;;4999959;28;20992;-76
2022/11/15 06:02:32;;;;;;;1.60;1.10;;;13.00;98.20;;;;;;4999853;28;20492;-76
2022/11/15 06:04:58;;;;;;;1.50;0.90;;;13.00;98.20;;;;;;5005153;28;20475;-76
2022/11/15 06:07:25;;;;;;;1.53;1.00;;;13.00;98.20;;;;;;4995453;28;20487;-75
2022/11/15 06:09:52;;;;;;;1.57;1.00;;;13.00;98.20;;;;;;5007721;28;20453;-76
2022/11/15 06:12:19;;;;;;;1.57;1.00;;;13.00;98.20;;;;;;5003046;28;20493;-76
2022/11/15 06:14:45;;;;;;;1.60;1.10;;;13.00;98.20;;;;;;5005722;28;20740;-76
2022/11/15 06:17:13;;;;;;;1.87;1.40;;;13.00;98.20;;;;;;5007054;28;20510;-76
2022/11/15 06:19:40;;;;;;;1.70;1.60;;;13.10;98.20;;;;;;5011744;28;20500;-75
2022/11/15 06:22:09;;;;;;;1.53;1.00;;;13.10;98.20;;;;;;4998590;28;20490;-76
2022/11/15 06:24:35;;;;;;;1.53;1.00;;;13.10;98.20;;;;;;5006394;28;20941;-78
2022/11/15 06:27:02;;;;;;;1.60;1.10;;;13.10;98.20;;;;;;5000715;28;20484;-78
2022/11/15 06:29:29;;;;;;;1.50;1.00;;;13.10;98.20;;;;;;5007283;28;20458;-80
2022/11/15 06:31:56;;;;;;;1.60;1.10;;;13.10;98.20;;;;;;5007348;28;20510;-80
2022/11/15 06:34:24;;;;;;;1.60;1.10;;;13.00;98.20;;;;;;5019444;28;20490;-77
2022/11/15 06:36:51;;;;;;;1.57;1.10;;;13.00;98.20;;;;;;5007387;28;20654;-78
2022/11/15 06:39:17;;;;;;;1.53;1.10;;;12.90;98.20;;;;;;5020862;28;20814;-77
2022/11/15 06:41:44;;;;;;;1.70;1.30;;;12.80;98.20;;;;;;5005348;28;20479;-79
2022/11/15 06:44:11;;;;;;;1.53;1.00;;;12.80;98.20;;;;;;5015728;28;20882;-82
2022/11/15 06:46:38;;;;;;;1.50;1.00;;;12.70;98.20;;;;;;5010185;28;20604;-79
2022/11/15 06:49:05;;;;;;;3.00;2.70;;;12.60;98.20;;;;;;5019353;28;20459;-77
2022/11/15 06:51:33;;;;;;;1.60;1.10;;;12.60;98.20;;;;;;5002354;28;20526;-80
2022/11/15 06:54:00;;;;;;;1.50;1.00;;;12.60;98.20;;;;;;5019063;28;20472;-79
2022/11/15 06:56:27;;;;;;;1.57;1.00;;;12.60;98.20;;;;;;5005729;28;20511;-80
2022/11/15 06:58:54;;;;;;;1.53;1.00;;;12.60;98.20;;;;;;5014525;28;20479;-79
2022/11/15 07:01:20;;;;;;;1.60;1.10;;;12.60;98.20;;;;;;5004918;28;20575;-78
2022/11/15 07:03:47;;;;;;;1.53;1.00;;;12.60;98.20;;;;;;5011329;28;20465;-80
2022/11/15 07:06:14;;;;;;;1.50;1.00;;;12.60;98.20;;;;;;5005932;28;20480;-77
2022/11/15 07:08:42;;;;;;;1.57;1.07;;;12.60;98.20;;;;;;5018652;28;20845;-78
2022/11/15 07:11:09;;;;;;;1.53;1.00;;;12.50;98.20;;;;;;5003482;28;20563;-78
2022/11/15 07:13:37;;;;;;;1.57;1.00;;;12.50;98.20;;;;;;5023282;28;20459;-76
2022/11/15 07:16:06;;;;;;;1.53;1.10;;;12.40;98.20;;;;;;5002924;28;20486;-78
2022/11/15 07:18:35;;;;;;;1.50;1.00;;;12.40;98.20;;;;;;5025227;28;20971;-79
2022/11/15 07:21:03;;;;;;;1.53;1.00;;;12.40;98.20;;;;;;5005670;28;20492;-79
2022/11/15 07:23:31;;;;;;;1.53;1.10;;;12.30;98.20;;;;;;5022881;28;20474;-78
2022/11/15 07:25:59;;;;;;;1.57;1.00;;;12.30;98.20;;;;;;5002079;28;20452;-79
2022/11/15 07:28:27;;;;;;;1.50;1.00;;;12.30;98.20;;;;;;5015808;28;20468;-79
2022/11/15 07:30:54;;;;;;;1.53;1.07;;;12.30;98.20;;;;;;5003566;28;20475;-78
2022/11/15 07:33:21;;;;;;;1.50;1.10;;;12.30;98.20;;;;;;5027612;28;20496;-78
2022/11/15 07:35:49;;;;;;;1.57;1.10;;;12.30;98.20;;;;;;5008746;28;20475;-78
2022/11/15 07:38:19;;;;;;;1.50;1.00;;;12.30;98.20;;;;;;5028530;28;20474;-79
2022/11/15 07:40:46;;;;;;;1.57;1.10;;;12.30;98.20;;;;;;5014835;28;20845;-79
2022/11/15 07:43:14;;;;;;;1.53;1.00;;;12.30;98.20;;;;;;4988289;28;20554;-78
2022/11/15 07:45:43;;;;;;;1.53;1.10;;;12.30;98.20;;;;;;5017468;28;20478;-80
2022/11/15 07:48:09;;;;;;;1.60;1.00;;;12.40;98.20;;;;;;5003667;28;20648;-79
2022/11/15 07:50:36;;;;;;;1.50;1.00;;;12.50;98.20;;;;;;5013213;28;20460;-77
2022/11/15 07:53:03;;;;;;;1.53;1.00;;;12.50;98.20;;;;;;5017523;28;20506;-80
2022/11/15 07:55:30;;;;;;;1.53;0.90;;;12.60;98.20;;;;;;5016069;28;20498;-75
2022/11/15 07:58:02;;;;;;;1.60;1.10;;;12.60;98.20;;;;;;5018725;28;20929;-77
2022/11/15 08:00:31;;;;;;;1.53;1.00;;;12.60;98.20;;;;;;5011107;28;20562;-80
2022/11/15 08:03:05;;;;;;;1.53;1.00;;;12.60;98.20;;;;;;4999170;28;20527;-78
2022/11/15 08:05:32;;;;;;;1.57;1.10;;;12.60;98.20;;;;;;5012804;28;20463;-79
2022/11/15 08:08:00;;;;;;;1.57;1.00;;;12.60;98.20;;;;;;5001407;28;20486;-78
2022/11/15 08:10:27;;;;;;;1.57;1.07;;;12.60;98.20;;;;;;5015321;28;20459;-77
2022/11/15 08:12:59;;;;;;;1.57;1.00;;;12.50;98.20;;;;;;5017799;28;20494;-77
2022/11/15 08:15:26;;;;;;;1.50;1.00;;;12.50;98.20;;;;;;5010193;28;20464;-79
2022/11/15 08:17:58;;;;;;;1.67;1.10;;;12.50;98.20;;;;;;5017858;28;20487;-77
2022/11/15 08:20:26;;;;;;;1.57;1.00;;;12.50;98.20;;;;;;5015844;28;20516;-76
2022/11/15 08:23:00;;;;;;;1.70;1.40;;;12.50;98.20;;;;;;5004832;28;20853;-79
2022/11/15 08:25:29;;;;;;;1.53;1.10;;;12.50;98.20;;;;;;5015513;28;20468;-78
2022/11/15 08:27:57;;;;;;;1.53;1.00;;;12.50;98.20;;;;;;5013911;28;20480;-79
2022/11/15 08:30:24;;;;;;;1.50;1.00;;;12.50;98.20;;;;;;5015215;28;20456;-78
2022/11/15 08:32:52;;;;;;;1.57;1.10;;;12.50;98.20;;;;;;5016507;28;20495;-79
2022/11/15 08:35:21;;;;;;;1.50;0.93;;;12.50;98.20;;;;;;5014765;28;20652;-78
2022/11/15 08:37:48;;;;;;;1.60;1.10;;;12.60;98.20;;;;;;5014579;28;20486;-79
2022/11/15 08:40:17;;;;;;;1.60;1.10;;;12.50;98.20;;;;;;5015957;28;20483;-78
2022/11/15 08:42:46;;;;;;;1.53;1.00;;;12.50;98.20;;;;;;5017129;28;20486;-79
2022/11/15 08:45:14;;;;;;;1.53;1.00;;;12.60;98.20;;;;;;5016970;28;20549;-79
2022/11/15 08:47:40;;;;;;;1.53;1.00;;;12.60;98.20;;;;;;5014226;28;20566;-76
2022/11/15 08:50:08;;;;;;;1.53;1.00;;;12.60;98.20;;;;;;5014322;28;20800;-78
2022/11/15 08:52:37;;;;;;;1.57;1.00;;;12.60;98.20;;;;;;4998044;28;20499;-77
2022/11/15 08:55:04;;;;;;;1.60;1.00;;;12.70;98.20;;;;;;5011329;28;20479;-77
2022/11/15 08:57:31;;;;;;;1.50;1.00;;;12.70;98.20;;;;;;5004974;28;20480;-78
2022/11/15 08:59:58;;;;;;;1.50;1.00;;;12.80;98.20;;;;;;5011894;28;20494;-79
2022/11/15 09:02:25;;;;;;;1.53;1.00;;;12.70;98.20;;;;;;5012896;28;20492;-76
2022/11/15 09:04:52;;;;;;;1.57;1.10;;;12.80;98.20;;;;;;5012414;28;20460;-77
2022/11/15 09:07:19;;;;;;;1.50;1.00;;;12.80;98.20;;;;;;5015664;28;20493;-77
2022/11/15 09:09:47;;;;;;;1.60;1.30;;;12.80;98.20;;;;;;5018543;28;20460;-79
2022/11/15 09:12:14;;;;;;;1.53;1.00;;;12.80;98.20;;;;;;5005648;28;20491;-79
2022/11/15 09:14:40;;;;;;;1.53;1.00;;;12.90;98.20;;;;;;5019040;28;20463;-77
2022/11/15 09:17:09;;;;;;;1.53;1.00;;;12.90;98.20;;;;;;5003291;28;20606;-77
2022/11/15 09:19:36;;;;;;;1.57;1.00;;;13.00;98.20;;;;;;5010589;28;20586;-78
2022/11/15 09:22:06;;;;;;;1.53;1.00;;;13.00;98.20;;;;;;5009443;28;20494;-79
2022/11/15 09:24:33;;;;;;;1.57;1.00;;;13.10;98.20;;;;;;5019682;28;20539;-77
2022/11/15 09:27:01;;;;;;;1.60;1.00;;;13.30;98.20;;;;;;5006795;28;20485;-77
2022/11/15 09:29:28;;;;;;;1.50;1.00;;;13.30;98.20;;;;;;5008941;28;20464;-78
2022/11/15 09:31:55;;;;;;;1.50;1.00;;;13.30;98.20;;;;;;5009129;28;20983;-79
2022/11/15 09:34:22;;;;;;;1.57;1.00;;;13.40;98.20;;;;;;5020223;28;20476;-78
2022/11/15 09:36:51;;;;;;;1.53;1.00;;;13.50;98.20;;;;;;5007277;28;20495;-77
2022/11/15 09:39:18;;;;;;;1.57;1.00;;;13.50;98.20;;;;;;5017146;28;20464;-79
2022/11/15 09:42:08;;;;;;;1.53;1.00;;;13.60;98.20;;;;;;5003621;28;21174;-80
2022/11/15 09:45:06;;;;;;;1.53;1.00;;;13.70;98.20;;;;;;5017801;28;20486;-82
2022/11/15 09:47:56;;;;;;;1.57;1.00;;;13.70;98.20;;;;;;5004090;28;20475;-79
2022/11/15 09:50:32;;;;;;;1.50;1.00;;;13.80;98.20;;;;;;5015152;28;20490;-80
2022/11/15 09:52:59;;;;;;;1.60;1.10;;;13.80;98.20;;;;;;5004432;28;20482;-78
2022/11/15 09:55:38;;;;;;;1.53;1.00;;;13.80;98.20;;;;;;5011883;28;21043;-79
2022/11/15 09:58:27;;;;;;;1.53;1.00;;;13.80;98.20;;;;;;5012935;28;20479;-76
2022/11/15 10:00:53;;;;;;;1.50;1.00;;;13.70;98.20;;;;;;4998649;28;20495;-76
2022/11/15 10:03:27;;;;;;;1.50;1.00;;;13.70;98.20;;;;;;5021258;28;20555;-78
2022/11/15 10:05:58;;;;;;;1.60;1.00;;;13.70;98.20;;;;;;4993539;28;20461;-77
2022/11/15 10:08:52;;;;;;;1.60;1.00;;;13.80;98.20;;;;;;5005812;28;20456;-76
2022/11/15 10:11:21;;;;;;;1.50;1.00;;;13.90;98.20;;;;;;5001447;28;20550;-74
2022/11/15 10:13:52;;;;;;;1.53;1.00;;;14.00;98.20;;;;;;5017954;28;20854;-75
2022/11/15 10:16:46;;;;;;;1.57;1.00;;;14.00;98.20;;;;;;4995554;28;20480;-75
2022/11/15 10:19:22;;;;;;;1.57;1.00;;;14.00;98.20;;;;;;5005982;28;21099;-77
2022/11/15 10:22:00;;;;;;;1.57;0.90;;;14.00;98.20;;;;;;5002176;28;20965;-75
2022/11/15 10:24:29;;;;;;;1.60;1.00;;;14.10;98.20;;;;;;5017570;28;20464;-73
2022/11/15 10:26:56;;;;;;;1.57;1.00;;;14.30;98.20;;;;;;5009703;28;20487;-76
2022/11/15 10:29:26;;;;;;;1.57;1.00;;;14.30;98.20;;;;;;5011445;28;20468;-74
2022/11/15 10:31:53;;;;;;;1.57;1.00;;;14.30;98.20;;;;;;5006389;28;20486;-74
2022/11/15 10:34:22;;;;;;;1.57;1.00;;;14.20;98.20;;;;;;5018155;28;20475;-76
2022/11/15 10:36:56;;;;;;;1.70;1.57;;;14.20;98.20;;;;;;5006694;28;20678;-75
2022/11/15 10:39:27;;;;;;;1.57;1.00;;;14.20;98.20;;;;;;5021906;28;20467;-75
2022/11/15 10:41:55;;;;;;;1.50;1.00;;;14.20;98.20;;;;;;4999038;28;21100;-73
2022/11/15 10:44:27;;;;;;;1.57;1.00;;;14.30;98.20;;;;;;5012460;28;20468;-74
2022/11/15 10:47:21;;;;;;;2.13;1.73;;;14.30;98.20;;;;;;5006053;28;20886;-75
2022/11/15 10:49:56;;;;;;;1.57;1.00;;;14.20;98.20;;;;;;5010528;28;20948;-75
2022/11/15 10:52:24;;;;;;;1.60;1.10;;;14.30;98.10;;;;;;5007980;28;21018;-76
2022/11/15 10:54:54;;;;;;;1.53;1.00;;;14.40;98.20;;;;;;5011731;28;20974;-76
2022/11/15 10:57:24;;;;;;;1.57;1.00;;;14.50;97.70;;;;;;5000185;28;20480;-75
2022/11/15 10:59:56;;;;;;;1.60;1.00;;;14.70;97.50;;;;;;5010355;28;20559;-75
2022/11/15 11:02:35;;;;;;;1.60;1.00;;;14.80;95.70;;;;;;5005053;28;20483;-75
2022/11/15 11:05:02;;;;;;;1.53;1.00;;;14.90;96.10;;;;;;5010562;28;20880;-75
2022/11/15 11:07:31;;;;;;;1.57;1.03;;;15.00;94.60;;;;;;4999532;28;20571;-75
2022/11/15 11:10:03;;;;;;;1.53;0.90;;;15.20;94.50;;;;;;5010866;28;20945;-76
2022/11/15 11:12:33;;;;;;;1.53;0.97;;;15.20;92.80;;;;;;5010041;28;21059;-75
2022/11/15 11:15:03;;;;;;;1.57;1.00;;;15.10;91.20;;;;;;5011912;28;20479;-73
2022/11/15 11:17:42;;;;;;;1.50;1.00;;;15.10;91.30;;;;;;5009674;28;20575;-74
2022/11/15 11:20:18;;;;;;;1.53;0.90;;;15.10;90.40;;;;;;5008077;28;20528;-76
2022/11/15 11:22:57;;;;;;;1.50;0.90;;;15.20;91.40;;;;;;5009492;28;20490;-73
2022/11/15 11:25:33;;;;;;;1.60;1.00;;;15.20;91.30;;;;;;5011110;28;20892;-73
2022/11/15 11:28:13;;;;;;;1.50;0.90;;;15.10;91.70;;;;;;5010549;28;20474;-73
2022/11/15 11:30:51;;;;;;;1.50;1.00;;;15.10;92.10;;;;;;4999277;28;20476;-73
2022/11/15 11:33:21;;;;;;;1.57;1.00;;;15.10;91.10;;;;;;4982712;28;20492;-73
2022/11/15 11:35:58;;;;;;;1.60;1.07;;;15.00;89.70;;;;;;5000631;28;20551;-73
2022/11/15 11:38:57;;;;;;;1.53;1.00;;;15.00;90.10;;;;;;5023537;28;20486;-73
2022/11/15 11:41:51;;;;;;;1.60;1.00;;;14.90;90.50;;;;;;5002740;28;20526;-75
2022/11/15 11:44:28;;;;;;;1.57;1.00;;;14.80;90.40;;;;;;5014226;28;20456;-73
2022/11/15 11:47:00;;;;;;;1.53;0.90;;;14.70;91.40;;;;;;5003396;28;20483;-73
2022/11/15 11:49:33;;;;;;;1.53;0.97;;;14.70;91.20;;;;;;5015847;28;20460;-74
2022/11/15 11:52:06;;;;;;;1.53;0.90;;;14.60;91.70;;;;;;5005179;28;20476;-72
2022/11/15 11:54:41;;;;;;;1.57;1.00;;;14.60;92.60;;;;;;5013752;28;20466;-73
2022/11/15 11:57:17;;;;;;;1.57;1.00;;;14.60;92.90;;;;;;4995731;28;20562;-73
2022/11/15 11:59:50;;;;;;;1.60;1.00;;;14.70;93.00;;;;;;5006539;28;20472;-73
2022/11/15 12:02:26;;;;;;;1.60;1.00;;;14.70;93.00;;;;;;5009151;28;20494;-72
2022/11/15 12:04:58;;;;;;;1.50;1.00;;;14.80;93.50;;;;;;5011363;28;20460;-74
2022/11/15 12:07:28;;;;;;;1.53;1.00;;;14.80;92.50;;;;;;5007825;28;20938;-75
2022/11/15 12:10:00;;;;;;;1.57;1.00;;;14.80;92.20;;;;;;5012022;28;20499;-73
2022/11/15 12:12:32;;;;;;;1.57;1.00;;;14.80;92.70;;;;;;5012112;28;20490;-74
2022/11/15 12:15:03;;;;;;;1.50;1.00;;;14.80;92.70;;;;;;5011585;28;20484;-74
2022/11/15 12:17:32;;;;;;;1.57;1.00;;;14.80;92.10;;;;;;5003820;28;20586;-76
2022/11/15 12:20:03;;;;;;;1.60;1.00;;;14.80;93.40;;;;;;5004274;28;20483;-74
2022/11/15 12:22:39;;;;;;;1.50;1.00;;;14.80;93.70;;;;;;4996787;28;20491;-75
2022/11/15 12:25:15;;;;;;;1.50;0.97;;;14.80;93.80;;;;;;5009756;28;20959;-75
2022/11/15 12:27:46;;;;;;;1.53;1.00;;;14.90;93.80;;;;;;5009226;28;20491;-74
2022/11/15 12:30:15;;;;;;;1.53;0.90;;;14.90;94.10;;;;;;5000176;28;20464;-75
2022/11/15 12:32:54;;;;;;;1.57;1.00;;;15.10;94.10;;;;;;5007020;28;20491;-75
2022/11/15 12:35:35;;;;;;;1.50;0.93;;;15.30;93.70;;;;;;4997388;28;20472;-73
2022/11/15 12:38:02;;;;;;;1.60;1.20;;;15.50;92.80;;;;;;4990931;28;20878;-73
2022/11/15 12:40:31;;;;;;;1.53;1.00;;;15.60;92.60;;;;;;4986361;28;20500;-73
2022/11/15 12:43:04;;;;;;;1.50;1.00;;;15.60;91.90;;;;;;5003604;28;20508;-73
2022/11/15 12:45:33;;;;;;;1.50;0.90;;;15.60;91.10;;;;;;4999986;28;20469;-73
2022/11/15 12:48:38;;;;;;;1.50;0.93;;;15.50;91.80;;;;;;4999619;28;20486;-74
2022/11/15 12:51:06;;;;;;;1.60;1.10;;;15.60;92.70;;;;;;4999656;28;21074;-73
2022/11/15 12:53:34;;;;;;;1.53;1.00;;;15.70;93.00;;;;;;5019151;28;20971;-73
2022/11/15 12:56:21;;;;;;;1.57;1.00;;;15.90;92.10;;;;;;4995980;28;20464;-73
2022/11/15 12:58:50;;;;;;;1.53;1.00;;;15.90;90.60;;;;;;5015729;28;20844;-73
2022/11/15 13:01:54;;;;;;;1.50;1.00;;;15.80;91.30;;;;;;4994183;28;20487;-74
2022/11/15 13:04:34;;;;;;;1.57;1.00;;;15.70;91.20;;;;;;5006467;28;21046;-76
2022/11/15 13:07:06;;;;;;;1.57;1.00;;;15.60;91.80;;;;;;5001795;28;20573;-74
2022/11/15 13:09:56;;;;;;;1.57;0.90;;;15.50;92.20;;;;;;5007083;28;20461;-74
2022/11/15 13:12:54;;;;;;;1.50;1.00;;;15.40;92.70;;;;;;5004106;28;21010;-75
2022/11/15 13:15:56;;;;;;;1.50;0.90;;;15.30;93.30;;;;;;4926610;29;20471;-75
2022/11/15 13:18:38;;;;;;;1.50;1.00;;;15.30;93.10;;;;;;4976631;28;20499;-75